Accueil
METAR-TAF:

METAR-TAF

Aéroports :

Wendover Airport

Wendover, Utah, États-Unis

latitude: 40-44N, longitude: 114-02W, altitude: 1291 m

Observation

Le bulletin a été fait il y a 19 minutes, à 22:13 UTC
Vent 11 kt de nord/nord-est
Température 5°C
Humidité 81%
Pression 1005 hPa
pluie faible

METAR: KENV 202213Z AUTO 02011KT -RA 05/02 A2969 RMK AO2 P0000

Heure: 15:32 (22:32 UTC)

Prévision

Le bulletin a été fait il y a 58 minutes, à 21:34 UTC
Prévision valable du 20 à 22 UTC au 21 à 18 UTC
Vent 10 kt de nord
Visibilité: 10 km
Nuages épars à une hauteur de 1500 ft
Nuages fragmentés à une hauteur de 2500 ft
Ciel couvert à une hauteur de 3000 ft
pluie faible
A partir de 21 à 0200 UTC
Vent 8 kt de nord/nord-est
Visibilité: 10 km
Nuages épars à une hauteur de 1500 ft
Ciel couvert à une hauteur de 4000 ft
pluie faible

TAF: KENV 202134Z 2022/2118 01010KT P6SM -RA SCT015 BKN025 OVC030 FM210200 03008KT P6SM -RA SCT015 OVC040

Observations et prévisions météorologiques de plus de 4000 aéroports (messages METAR et TAF).

Les stations disponibles sont représentées par des disques jaunes et rouges sur la carte.

Passer la souris dessus pour voir le nom de la station.

Cliquer dessus pour voir les observations et prévisions météorologiques.

Pour changer de carte: cliquez sur les boutons verts avec une croix noire pour zoomer, sur le bouton vert avec un tiret pour effectuer un zoom arrière, ou sur les flèches vertes pour les cartes adjacentes.


METAR-TAF: